createdAt,value
2023-02-12T00:01:34.915Z,1.63
2023-02-12T00:04:03.219Z,1.42
2023-02-12T00:06:34.012Z,2.00
2023-02-12T00:09:07.710Z,1.50
2023-02-12T00:11:36.084Z,1.50
2023-02-12T00:14:05.809Z,1.65
2023-02-12T00:16:34.139Z,1.55
2023-02-12T00:19:02.452Z,1.90
2023-02-12T00:21:30.806Z,1.45
2023-02-12T00:23:59.311Z,1.50
2023-02-12T00:26:27.615Z,1.65
2023-02-12T00:28:56.020Z,1.50
2023-02-12T00:31:28.125Z,1.17
2023-02-12T00:33:56.639Z,1.08
2023-02-12T00:36:26.034Z,1.20
2023-02-12T00:38:55.208Z,1.38
2023-02-12T00:41:23.667Z,1.58
2023-02-12T00:43:52.281Z,1.25
2023-02-12T00:46:20.762Z,1.55
2023-02-12T00:48:50.526Z,1.20
2023-02-12T00:51:18.879Z,0.95
2023-02-12T00:53:47.192Z,1.40
2023-02-12T00:56:15.533Z,1.48
2023-02-12T00:58:43.919Z,1.30
2023-02-12T01:01:12.236Z,1.10
2023-02-12T01:03:40.534Z,1.17
2023-02-12T01:06:10.358Z,1.20
2023-02-12T01:08:41.515Z,1.20
2023-02-12T01:11:12.748Z,1.08
2023-02-12T01:13:41.048Z,1.13
2023-02-12T01:16:12.508Z,0.93
2023-02-12T01:18:40.983Z,1.02
2023-02-12T01:21:15.451Z,1.08
2023-02-12T01:23:43.961Z,0.98
2023-02-12T01:26:12.799Z,1.30
2023-02-12T01:28:41.533Z,1.20
2023-02-12T01:31:11.300Z,1.10
2023-02-12T01:33:41.615Z,0.98
2023-02-12T01:36:10.748Z,1.00
2023-02-12T01:38:40.436Z,0.80
2023-02-12T01:41:09.744Z,1.00
2023-02-12T01:43:38.193Z,0.98
2023-02-12T01:46:07.342Z,0.90
2023-02-12T01:48:38.392Z,0.65
2023-02-12T01:51:06.933Z,1.00
2023-02-12T01:53:36.974Z,0.80
2023-02-12T01:56:09.430Z,0.80
2023-02-12T01:58:39.886Z,1.52
2023-02-12T02:01:09.139Z,1.27
2023-02-12T02:03:37.943Z,0.65
2023-02-12T02:06:09.298Z,0.80
2023-02-12T02:08:37.684Z,0.63
2023-02-12T02:11:27.426Z,0.60
2023-02-12T02:14:15.725Z,0.70
2023-02-12T02:16:46.021Z,0.60
2023-02-12T02:19:20.116Z,0.70
2023-02-12T02:22:24.091Z,0.70
2023-02-12T02:25:06.642Z,0.70
2023-02-12T02:27:41.424Z,0.50
2023-02-12T02:30:33.933Z,0.60
2023-02-12T02:33:16.560Z,1.05
2023-02-12T02:35:48.080Z,0.85
2023-02-12T02:38:25.469Z,0.60
2023-02-12T02:40:56.639Z,0.70
2023-02-12T02:43:27.736Z,0.70
2023-02-12T02:45:58.462Z,0.77
2023-02-12T02:48:28.112Z,1.00
2023-02-12T02:50:58.300Z,0.82
2023-02-12T02:53:28.926Z,0.73
2023-02-12T02:55:58.122Z,0.60
2023-02-12T02:58:27.888Z,0.70
2023-02-12T03:01:00.188Z,0.52
2023-02-12T03:03:29.992Z,0.60
2023-02-12T03:06:00.564Z,0.40
2023-02-12T03:08:34.217Z,0.77
2023-02-12T03:11:04.591Z,0.50
2023-02-12T03:13:35.004Z,0.60
2023-02-12T03:16:06.917Z,0.68
2023-02-12T03:18:36.324Z,0.50
2023-02-12T03:21:06.675Z,0.47
2023-02-12T03:23:38.724Z,0.55
2023-02-12T03:26:10.892Z,0.30
2023-02-12T03:28:39.701Z,0.50
2023-02-12T03:31:13.175Z,0.40
2023-02-12T03:33:45.780Z,0.60
2023-02-12T03:36:20.557Z,0.47
2023-02-12T03:38:50.359Z,0.57
2023-02-12T03:41:21.559Z,0.80
2023-02-12T03:43:51.231Z,0.40
2023-02-12T03:46:23.496Z,0.30
2023-02-12T03:48:58.040Z,0.40
2023-02-12T03:51:28.552Z,0.30
2023-02-12T03:53:58.996Z,0.60
2023-02-12T03:56:29.764Z,0.47
2023-02-12T03:58:58.250Z,0.60
2023-02-12T04:01:28.061Z,0.40
2023-02-12T04:03:56.901Z,0.40
2023-02-12T04:06:26.678Z,0.60
2023-02-12T04:08:55.374Z,0.47
2023-02-12T04:11:29.752Z,0.40
2023-02-12T04:14:08.635Z,0.40
2023-02-12T04:16:42.233Z,0.40
2023-02-12T04:19:10.996Z,0.43
2023-02-12T04:21:44.834Z,0.50
2023-02-12T04:24:17.092Z,0.50
2023-02-12T04:26:50.414Z,0.60
2023-02-12T04:29:21.382Z,0.43
2023-02-12T04:31:52.097Z,0.50
2023-02-12T04:34:23.163Z,1.10
2023-02-12T04:36:56.276Z,0.60
2023-02-12T04:39:28.914Z,0.60
2023-02-12T04:41:59.726Z,0.60
2023-02-12T04:44:29.875Z,0.40
2023-02-12T04:46:59.640Z,0.45
2023-02-12T04:49:28.071Z,0.40
2023-02-12T04:51:56.531Z,0.25
2023-02-12T04:54:25.078Z,0.32
2023-02-12T04:56:56.550Z,0.25
2023-02-12T04:59:24.843Z,0.30
2023-02-12T05:01:53.134Z,0.63
2023-02-12T05:04:22.844Z,0.50
2023-02-12T05:06:51.150Z,0.65
2023-02-12T05:09:23.209Z,0.32
2023-02-12T05:11:51.580Z,0.60
2023-02-12T05:14:19.899Z,0.52
2023-02-12T05:16:48.240Z,0.32
2023-02-12T05:19:17.997Z,0.28
2023-02-12T05:21:47.653Z,0.45
2023-02-12T05:24:15.990Z,0.43
2023-02-12T05:26:47.106Z,0.50
2023-02-12T05:29:15.456Z,0.50
2023-02-12T05:31:43.931Z,0.50
2023-02-12T05:34:12.554Z,0.40
2023-02-12T05:36:40.932Z,0.50
2023-02-12T05:39:11.654Z,0.60
2023-02-12T05:41:40.021Z,0.93
2023-02-12T05:44:08.378Z,0.70
2023-02-12T05:46:36.756Z,0.90
2023-02-12T05:49:05.176Z,0.60
2023-02-12T05:51:34.928Z,0.95
2023-02-12T05:54:04.001Z,0.98
2023-02-12T05:56:34.125Z,0.70
2023-02-12T05:59:03.464Z,0.85
2023-02-12T06:01:32.974Z,0.82
2023-02-12T06:04:05.435Z,0.70
2023-02-12T06:06:33.980Z,0.65
2023-02-12T06:09:02.427Z,0.88
2023-02-12T06:11:30.897Z,0.70
2023-02-12T06:14:03.285Z,0.77
2023-02-12T06:16:31.695Z,1.00
2023-02-12T06:19:00.088Z,0.90
2023-02-12T06:21:30.756Z,0.90
2023-02-12T06:23:59.260Z,1.10
2023-02-12T06:26:27.729Z,1.10
2023-02-12T06:28:56.026Z,1.05
2023-02-12T06:31:26.599Z,1.10
2023-02-12T06:33:55.228Z,0.75
2023-02-12T06:36:23.869Z,0.98
2023-02-12T06:38:52.336Z,1.50
2023-02-12T06:41:20.714Z,1.40
2023-02-12T06:43:49.155Z,1.17
2023-02-12T06:46:17.555Z,1.13
2023-02-12T06:48:49.356Z,1.13
2023-02-12T06:51:18.363Z,1.20
2023-02-12T06:53:46.701Z,1.00
2023-02-12T06:56:15.105Z,0.90
2023-02-12T06:58:44.356Z,1.05
2023-02-12T07:01:14.859Z,1.10
2023-02-12T07:03:43.474Z,0.95
2023-02-12T07:06:14.323Z,0.90
2023-02-12T07:08:42.654Z,1.08
2023-02-12T07:11:11.015Z,1.00
2023-02-12T07:13:39.842Z,1.15
2023-02-12T07:16:08.731Z,1.05
2023-02-12T07:18:37.185Z,1.10
2023-02-12T07:21:06.429Z,1.17
2023-02-12T07:23:36.426Z,1.15
2023-02-12T07:26:06.677Z,1.30
2023-02-12T07:28:35.193Z,1.42
2023-02-12T07:31:08.088Z,1.40
2023-02-12T07:33:36.728Z,1.50
2023-02-12T07:36:05.880Z,1.13
2023-02-12T07:38:35.975Z,1.27
2023-02-12T07:41:15.571Z,1.85
2023-02-12T07:43:44.510Z,1.52
2023-02-12T07:46:14.414Z,1.10
2023-02-12T07:48:42.735Z,1.00
2023-02-12T07:51:12.777Z,1.30
2023-02-12T07:53:41.244Z,1.50
2023-02-12T07:56:13.766Z,1.20
2023-02-12T07:58:42.863Z,1.40
2023-02-12T08:01:15.464Z,1.35
2023-02-12T08:03:43.839Z,1.63
2023-02-12T08:06:13.834Z,1.52
2023-02-12T08:08:42.127Z,1.70
2023-02-12T08:11:12.261Z,1.70
2023-02-12T08:13:40.746Z,1.40
2023-02-12T08:16:13.494Z,1.60
2023-02-12T08:18:41.906Z,1.40
2023-02-12T08:21:10.886Z,1.55
2023-02-12T08:23:39.393Z,1.38
2023-02-12T08:26:12.872Z,1.40
2023-02-12T08:28:42.559Z,1.65
2023-02-12T08:31:12.054Z,1.67
2023-02-12T08:33:40.374Z,1.40
2023-02-12T08:36:10.536Z,1.65
2023-02-12T08:38:39.105Z,1.40
2023-02-12T08:41:08.180Z,1.60
2023-02-12T08:43:37.989Z,1.80
2023-02-12T08:46:06.960Z,1.95
2023-02-12T08:48:35.419Z,1.70
2023-02-12T08:51:08.048Z,2.75
2023-02-12T08:53:36.408Z,2.13
2023-02-12T08:56:05.126Z,1.98
2023-02-12T08:58:33.503Z,2.38
2023-02-12T09:01:03.391Z,2.22
2023-02-12T09:03:31.759Z,2.53
2023-02-12T09:06:00.061Z,2.25
2023-02-12T09:08:28.388Z,2.15
2023-02-12T09:10:59.152Z,2.75
2023-02-12T09:13:27.517Z,2.22
2023-02-12T09:15:56.329Z,2.28
2023-02-12T09:18:26.177Z,2.22
2023-02-12T09:20:54.537Z,2.53
2023-02-12T09:23:22.906Z,2.35
2023-02-12T09:25:51.266Z,2.67
2023-02-12T09:28:19.646Z,2.15
2023-02-12T09:30:51.676Z,2.08
2023-02-12T09:33:20.081Z,3.47
2023-02-12T09:35:49.843Z,4.25
2023-02-12T09:38:19.884Z,4.03
2023-02-12T09:40:50.701Z,5.72
2023-02-12T09:43:20.859Z,5.78
2023-02-12T09:45:54.396Z,5.50
2023-02-12T09:48:36.878Z,4.60
2023-02-12T09:51:07.695Z,4.50
2023-02-12T09:53:37.414Z,4.20
2023-02-12T09:56:10.720Z,3.78
2023-02-12T09:58:43.894Z,3.97
2023-02-12T10:01:13.565Z,3.60
2023-02-12T10:03:42.001Z,3.55
2023-02-12T10:06:14.678Z,3.67
2023-02-12T10:09:02.562Z,3.25
2023-02-12T10:11:50.368Z,3.40
2023-02-12T10:14:46.968Z,2.97
2023-02-12T10:17:19.368Z,2.90
2023-02-12T10:20:12.991Z,2.80
2023-02-12T10:22:56.128Z,3.00
2023-02-12T10:25:27.359Z,3.38
2023-02-12T10:27:58.902Z,2.83
2023-02-12T10:30:32.129Z,3.28
2023-02-12T10:33:01.714Z,3.25
2023-02-12T10:35:30.122Z,2.97
2023-02-12T10:38:03.095Z,3.35
2023-02-12T10:40:33.927Z,3.33
2023-02-12T10:43:05.582Z,3.08
2023-02-12T10:45:34.775Z,3.05
2023-02-12T10:48:09.132Z,2.70
2023-02-12T10:50:42.667Z,3.03
2023-02-12T10:53:17.409Z,2.63
2023-02-12T10:55:45.756Z,2.70
2023-02-12T10:58:21.616Z,2.75
2023-02-12T11:00:57.536Z,3.10
2023-02-12T11:03:29.693Z,2.88
2023-02-12T11:05:58.311Z,2.40
2023-02-12T11:08:33.348Z,2.40
2023-02-12T11:11:07.810Z,2.30
2023-02-12T11:13:38.962Z,2.33
2023-02-12T11:16:07.516Z,2.60
2023-02-12T11:18:37.306Z,2.70
2023-02-12T11:21:06.543Z,2.60
2023-02-12T11:23:37.757Z,2.83
2023-02-12T11:26:09.863Z,2.92
2023-02-12T11:28:38.287Z,2.55
2023-02-12T11:31:22.461Z,2.80
2023-02-12T11:34:09.762Z,2.85
2023-02-12T11:36:38.849Z,2.60
2023-02-12T11:39:14.967Z,2.53
2023-02-12T11:41:43.271Z,2.42
2023-02-12T11:44:12.546Z,2.70
2023-02-12T11:46:41.008Z,2.67
2023-02-12T11:49:10.116Z,2.83
2023-02-12T11:51:41.463Z,3.58
2023-02-12T11:54:19.306Z,2.65
2023-02-12T11:56:47.806Z,2.70
2023-02-12T11:59:29.609Z,2.50
2023-02-12T12:01:58.849Z,2.67
2023-02-12T12:04:27.213Z,2.97
2023-02-12T12:06:58.801Z,2.35
2023-02-12T12:09:30.902Z,2.72
2023-02-12T12:12:01.006Z,2.38
2023-02-12T12:14:30.700Z,2.45
2023-02-12T12:17:18.718Z,2.45
2023-02-12T12:19:56.339Z,2.47
2023-02-12T12:22:45.816Z,2.65
2023-02-12T12:25:25.052Z,2.75
2023-02-12T12:28:09.131Z,2.50
2023-02-12T12:30:50.592Z,2.30
2023-02-12T12:33:22.709Z,2.05
2023-02-12T12:35:58.843Z,2.70
2023-02-12T12:38:32.547Z,2.20
2023-02-12T12:41:04.944Z,2.72
2023-02-12T12:43:47.637Z,2.35
2023-02-12T12:46:41.369Z,2.30
2023-02-12T12:49:24.949Z,2.47
2023-02-12T12:52:04.747Z,1.98
2023-02-12T12:54:41.144Z,1.98
2023-02-12T12:57:16.787Z,2.13
2023-02-12T13:00:04.720Z,1.90
2023-02-12T13:02:56.098Z,1.80
2023-02-12T13:05:57.489Z,2.10
2023-02-12T13:08:41.003Z,2.20
2023-02-12T13:11:13.822Z,2.10
2023-02-12T13:13:44.885Z,2.28
2023-02-12T13:16:16.274Z,2.03
2023-02-12T13:18:49.852Z,2.20
2023-02-12T13:21:23.150Z,2.50
2023-02-12T13:23:53.204Z,2.63
2023-02-12T13:26:27.230Z,2.42
2023-02-12T13:28:58.176Z,2.50
2023-02-12T13:31:35.229Z,2.22
2023-02-12T13:36:31.915Z,2.40
2023-02-12T13:39:02.754Z,2.67
2023-02-12T13:41:31.071Z,2.85
2023-02-12T13:44:07.623Z,2.67
2023-02-12T13:46:41.734Z,2.92
2023-02-12T13:49:19.349Z,2.88
2023-02-12T13:51:48.263Z,2.90
2023-02-12T13:54:37.318Z,3.10
2023-02-12T13:57:09.871Z,2.47
2023-02-12T13:59:47.360Z,2.50
2023-02-12T14:02:47.489Z,2.60
2023-02-12T14:05:26.922Z,2.78
2023-02-12T14:07:56.265Z,2.30
2023-02-12T14:10:26.860Z,2.42
2023-02-12T14:12:56.335Z,2.55
2023-02-12T14:15:44.626Z,2.45
2023-02-12T14:18:33.339Z,2.55
2023-02-12T14:21:41.136Z,2.22
2023-02-12T14:24:52.026Z,2.33
2023-02-12T14:27:38.303Z,2.03
2023-02-12T14:30:26.031Z,2.53
2023-02-12T14:35:35.103Z,2.42
2023-02-12T14:38:04.125Z,2.85
2023-02-12T14:40:42.414Z,2.65
2023-02-12T14:43:33.693Z,2.83
2023-02-12T14:46:35.396Z,2.70
2023-02-12T14:49:06.115Z,3.65
2023-02-12T14:51:37.095Z,3.60
2023-02-12T14:54:08.492Z,3.47
2023-02-12T14:56:44.605Z,4.25
2023-02-12T14:59:13.160Z,4.50
2023-02-12T15:01:41.542Z,4.75
2023-02-12T15:04:13.800Z,4.55
2023-02-12T15:06:47.139Z,4.25
2023-02-12T15:09:29.646Z,4.88
2023-02-12T15:12:01.932Z,4.95
2023-02-12T15:14:31.911Z,5.25
2023-02-12T15:17:09.854Z,4.63
2023-02-12T15:19:44.535Z,4.68
2023-02-12T15:22:23.550Z,4.90
2023-02-12T15:24:51.917Z,5.35
2023-02-12T15:27:29.326Z,4.88
2023-02-12T15:29:57.624Z,4.85
2023-02-12T15:32:26.881Z,5.35
2023-02-12T15:34:56.633Z,5.15
2023-02-12T15:37:28.905Z,5.07
2023-02-12T15:39:58.341Z,5.30
2023-02-12T15:42:28.739Z,5.00
2023-02-12T15:45:07.122Z,5.57
2023-02-12T15:47:35.529Z,5.35
2023-02-12T15:50:07.835Z,5.07
2023-02-12T15:52:37.843Z,4.95
2023-02-12T15:55:06.915Z,5.30
2023-02-12T15:57:35.301Z,5.53
2023-02-12T16:00:05.840Z,4.80
2023-02-12T16:02:34.338Z,5.57
2023-02-12T16:05:05.012Z,4.65
2023-02-12T16:07:36.860Z,5.20
2023-02-12T16:10:05.879Z,5.30
2023-02-12T16:12:36.888Z,5.72
2023-02-12T16:15:05.486Z,5.57
2023-02-12T16:17:36.942Z,5.43
2023-02-12T16:20:07.922Z,4.95
2023-02-12T16:22:40.227Z,6.45
2023-02-12T16:25:15.136Z,5.70
2023-02-12T16:27:44.626Z,6.03
2023-02-12T16:30:25.904Z,6.32
2023-02-12T16:32:54.215Z,6.20
2023-02-12T16:35:29.831Z,6.28
2023-02-12T16:38:04.704Z,6.63
2023-02-12T16:40:35.324Z,6.38
2023-02-12T16:43:19.624Z,6.45
2023-02-12T16:45:47.943Z,6.97
2023-02-12T16:48:23.249Z,7.05
2023-02-12T16:50:53.479Z,7.13
2023-02-12T16:53:43.618Z,7.72
2023-02-12T16:56:18.025Z,7.00
2023-02-12T16:58:57.308Z,8.23
2023-02-12T17:01:28.832Z,8.07
2023-02-12T17:03:58.137Z,8.07
2023-02-12T17:06:27.443Z,8.60
2023-02-12T17:08:57.115Z,9.30
2023-02-12T17:11:25.539Z,9.93
2023-02-12T17:13:54.756Z,9.13
2023-02-12T17:16:32.099Z,8.05
2023-02-12T17:19:00.720Z,9.23
2023-02-12T17:21:29.929Z,7.57
2023-02-12T17:23:59.615Z,8.23
2023-02-12T17:26:28.015Z,7.75
2023-02-12T17:28:56.573Z,8.27
2023-02-12T17:31:24.998Z,8.80
2023-02-12T17:33:53.347Z,8.25
2023-02-12T17:36:21.688Z,8.20
2023-02-12T17:38:50.060Z,8.45
2023-02-12T17:41:19.884Z,8.00
2023-02-12T17:43:48.219Z,7.80
2023-02-12T17:46:19.328Z,7.93
2023-02-12T17:48:47.711Z,8.38
2023-02-12T17:51:16.272Z,8.35
2023-02-12T17:53:44.612Z,8.27
2023-02-12T17:56:13.027Z,8.20
2023-02-12T17:58:42.827Z,8.35
2023-02-12T18:01:12.002Z,8.43
2023-02-12T18:03:40.439Z,7.82
2023-02-12T18:06:08.981Z,8.38
2023-02-12T18:08:37.338Z,7.90
2023-02-12T18:11:09.921Z,8.60
2023-02-12T18:13:38.313Z,8.18
2023-02-12T18:16:08.602Z,9.07
2023-02-12T18:18:37.016Z,8.23
2023-02-12T18:21:08.677Z,8.63
2023-02-12T18:23:37.083Z,8.68
2023-02-12T18:26:08.387Z,8.18
2023-02-12T18:28:38.501Z,9.40
2023-02-12T18:31:08.573Z,8.95
2023-02-12T18:33:37.176Z,8.52
2023-02-12T18:36:07.019Z,9.05
2023-02-12T18:38:35.473Z,9.00
2023-02-12T18:41:07.469Z,9.55
2023-02-12T18:43:36.574Z,8.75
2023-02-12T18:46:11.083Z,9.75
2023-02-12T18:48:39.427Z,8.93
2023-02-12T18:51:08.448Z,9.30
2023-02-12T18:53:36.764Z,9.30
2023-02-12T18:56:05.757Z,9.05
2023-02-12T18:58:39.582Z,9.45
2023-02-12T19:01:15.120Z,9.77
2023-02-12T19:03:43.524Z,9.73
2023-02-12T19:06:11.933Z,8.57
2023-02-12T19:08:40.258Z,9.10
2023-02-12T19:11:09.040Z,9.70
2023-02-12T19:13:37.403Z,10.00
2023-02-12T19:16:08.906Z,11.15
2023-02-12T19:18:38.627Z,10.07
2023-02-12T19:21:08.156Z,9.95
2023-02-12T19:23:36.577Z,9.70
2023-02-12T19:26:05.531Z,10.10
2023-02-12T19:28:35.065Z,9.65
2023-02-12T19:31:11.010Z,10.18
2023-02-12T19:33:44.729Z,10.43
2023-02-12T19:36:14.208Z,10.07
2023-02-12T19:38:42.571Z,10.07
2023-02-12T19:41:11.703Z,10.30
2023-02-12T19:43:40.076Z,10.20
2023-02-12T19:46:09.558Z,10.13
2023-02-12T19:48:38.101Z,11.18
2023-02-12T19:51:10.003Z,9.98
2023-02-12T19:53:38.380Z,10.98
2023-02-12T19:56:07.291Z,11.10
2023-02-12T19:58:35.663Z,9.73
2023-02-12T20:01:08.716Z,9.68
2023-02-12T20:03:37.175Z,9.43
2023-02-12T20:06:09.445Z,9.73
2023-02-12T20:08:37.939Z,9.95
2023-02-12T20:11:07.853Z,8.90
2023-02-12T20:13:36.312Z,9.20
2023-02-12T20:16:04.790Z,8.27
2023-02-12T20:18:34.728Z,8.40
2023-02-12T20:21:03.189Z,8.88
2023-02-12T20:23:32.851Z,9.10
2023-02-12T20:26:01.221Z,8.93
2023-02-12T20:28:29.548Z,8.43
2023-02-12T20:30:58.349Z,8.70
2023-02-12T20:33:26.938Z,8.30
2023-02-12T20:35:58.355Z,8.07
2023-02-12T20:38:26.713Z,8.48
2023-02-12T20:40:56.771Z,8.80
2023-02-12T20:43:25.369Z,8.82
2023-02-12T20:45:53.656Z,7.57
2023-02-12T20:48:24.782Z,7.68
2023-02-12T20:50:53.125Z,7.85
2023-02-12T20:53:21.428Z,8.20
2023-02-12T20:55:49.776Z,8.13
2023-02-12T20:58:19.496Z,8.02
2023-02-12T21:00:47.791Z,8.73
2023-02-12T21:03:16.073Z,7.95
2023-02-12T21:05:44.360Z,8.50
2023-02-12T21:08:12.685Z,7.93
2023-02-12T21:10:40.991Z,8.38
2023-02-12T21:13:10.725Z,8.65
2023-02-12T21:15:40.472Z,7.68
2023-02-12T21:18:08.876Z,7.97
2023-02-12T21:20:37.256Z,7.18
2023-02-12T21:23:05.588Z,7.20
2023-02-12T21:25:33.975Z,7.75
2023-02-12T21:28:02.350Z,7.30
2023-02-12T21:30:30.737Z,7.22
2023-02-12T21:33:00.399Z,6.93
2023-02-12T21:35:31.549Z,7.50
2023-02-12T21:37:59.862Z,7.75
2023-02-12T21:40:28.180Z,7.20
2023-02-12T21:42:56.615Z,7.15
2023-02-12T21:45:24.961Z,7.72
2023-02-12T21:47:53.435Z,7.65
2023-02-12T21:50:23.187Z,7.20
2023-02-12T21:52:53.152Z,7.68
2023-02-12T21:55:21.483Z,7.80
2023-02-12T21:57:49.869Z,8.40
2023-02-12T22:00:21.424Z,7.75
2023-02-12T22:02:50.133Z,7.03
2023-02-12T22:05:18.756Z,8.18
2023-02-12T22:07:50.835Z,6.95
2023-02-12T22:10:19.566Z,6.72
2023-02-12T22:12:47.926Z,7.35
2023-02-12T22:15:19.158Z,7.00
2023-02-12T22:17:47.456Z,6.80
2023-02-12T22:20:15.792Z,5.85
2023-02-12T22:22:44.137Z,7.13
2023-02-12T22:25:18.225Z,8.05
2023-02-12T22:27:46.580Z,8.10
2023-02-12T22:30:16.561Z,6.68
2023-02-12T22:32:44.934Z,7.32
2023-02-12T22:35:13.266Z,7.63
2023-02-12T22:37:41.718Z,7.43
2023-02-12T22:40:11.113Z,7.13
2023-02-12T22:42:40.822Z,6.75
2023-02-12T22:45:09.835Z,7.55
2023-02-12T22:47:38.200Z,6.57
2023-02-12T22:50:07.887Z,7.13
2023-02-12T22:52:36.178Z,8.10
2023-02-12T22:55:04.742Z,6.38
2023-02-12T22:57:33.083Z,7.05
2023-02-12T23:00:02.756Z,7.40
2023-02-12T23:02:31.178Z,7.97
2023-02-12T23:04:59.554Z,7.32
2023-02-12T23:07:27.891Z,6.88
2023-02-12T23:09:56.248Z,7.00
2023-02-12T23:12:24.548Z,7.95
2023-02-12T23:14:52.899Z,7.22
2023-02-12T23:17:22.600Z,7.97
2023-02-12T23:19:53.336Z,6.75
2023-02-12T23:22:21.699Z,7.90
2023-02-12T23:24:51.017Z,6.28
2023-02-12T23:27:19.351Z,6.47
2023-02-12T23:29:47.647Z,6.93
2023-02-12T23:32:16.004Z,6.63
2023-02-12T23:34:45.723Z,6.95
2023-02-12T23:37:14.133Z,7.72
2023-02-12T23:39:42.485Z,8.00
2023-02-12T23:42:10.929Z,8.18
2023-02-12T23:44:39.274Z,7.32
2023-02-12T23:47:07.565Z,6.93
2023-02-12T23:49:36.951Z,7.25
2023-02-12T23:52:06.811Z,7.05
2023-02-12T23:54:35.161Z,6.97
2023-02-12T23:57:03.513Z,7.07
2023-02-12T23:59:31.847Z,7.07
